KRDM

Roberts Field Airport

Redmond, Oregon, USA
METAR KRDM 191056Z AUTO 17004KT 10SM CLR 03/00 A3003 RMK AO2 SLP163 T00280000
Observed Flight Rules
Sep-19 @ 10:56 UTC (6 minutes ago) Visual Flight Rules
Wind Visibility Clouds
170° at 4 knots 10 miles
  • Clear skies
Temperatures Readings
Current 3°C / 37°F
Dewpoint 0°C / 32°F
Humidity 81%
Altimeter 30.03" Hg
Pressure 1016.3 hPa
Elevation 938
METAR KRDM 191056Z AUTO 17004KT 10SM CLR 03/00 A3003 RMK AO2 SLP163 T00280000
Observed Flight Rules
Sep-19 @ 10:56 UTC
(6 minutes ago)
VFR
Wind Visibility
170° at 4 knots 10 miles
Clouds
  • Clear skies
Temperature Dewpoint
3°C / 37°F 0°C / 32°F
Humidity Altimeter Pressure
81% 30.03" Hg 1016.3 hPa